sensor_id;sensor_type;location;lat;lon;timestamp;P1;durP1;ratioP1;P2;durP2;ratioP2
26540;SDS011;14206;50.202;10.948;2022-12-08T00:01:33;12.27;;;9.77;;
26540;SDS011;14206;50.202;10.948;2022-12-08T00:04:01;10.68;;;8.45;;
26540;SDS011;14206;50.202;10.948;2022-12-08T00:06:33;10.05;;;7.70;;
26540;SDS011;14206;50.202;10.948;2022-12-08T00:09:24;9.32;;;7.53;;
26540;SDS011;14206;50.202;10.948;2022-12-08T00:12:09;8.95;;;6.85;;
26540;SDS011;14206;50.202;10.948;2022-12-08T00:14:39;9.43;;;6.90;;
26540;SDS011;14206;50.202;10.948;2022-12-08T00:17:11;12.68;;;7.85;;
26540;SDS011;14206;50.202;10.948;2022-12-08T00:19:40;9.00;;;7.10;;
26540;SDS011;14206;50.202;10.948;2022-12-08T00:22:09;9.13;;;7.15;;
26540;SDS011;14206;50.202;10.948;2022-12-08T00:24:38;9.73;;;7.00;;
26540;SDS011;14206;50.202;10.948;2022-12-08T00:27:09;11.20;;;7.90;;
26540;SDS011;14206;50.202;10.948;2022-12-08T00:29:37;9.77;;;7.13;;
26540;SDS011;14206;50.202;10.948;2022-12-08T00:32:04;9.60;;;7.57;;
26540;SDS011;14206;50.202;10.948;2022-12-08T00:34:32;11.23;;;7.15;;
26540;SDS011;14206;50.202;10.948;2022-12-08T00:36:59;9.98;;;7.88;;
26540;SDS011;14206;50.202;10.948;2022-12-08T00:39:26;10.57;;;7.90;;
26540;SDS011;14206;50.202;10.948;2022-12-08T00:41:53;11.02;;;8.07;;
26540;SDS011;14206;50.202;10.948;2022-12-08T00:44:39;11.52;;;8.57;;
26540;SDS011;14206;50.202;10.948;2022-12-08T00:47:07;11.50;;;8.88;;
26540;SDS011;14206;50.202;10.948;2022-12-08T00:49:33;13.35;;;9.63;;
26540;SDS011;14206;50.202;10.948;2022-12-08T00:52:00;13.85;;;9.73;;
26540;SDS011;14206;50.202;10.948;2022-12-08T00:54:27;13.77;;;10.15;;
26540;SDS011;14206;50.202;10.948;2022-12-08T00:56:54;13.18;;;10.48;;
26540;SDS011;14206;50.202;10.948;2022-12-08T00:59:21;15.25;;;11.25;;
26540;SDS011;14206;50.202;10.948;2022-12-08T01:01:48;16.50;;;11.45;;
26540;SDS011;14206;50.202;10.948;2022-12-08T01:04:16;15.38;;;12.55;;
26540;SDS011;14206;50.202;10.948;2022-12-08T01:06:44;15.30;;;11.23;;
26540;SDS011;14206;50.202;10.948;2022-12-08T01:09:12;15.63;;;10.80;;
26540;SDS011;14206;50.202;10.948;2022-12-08T01:11:40;16.75;;;12.05;;
26540;SDS011;14206;50.202;10.948;2022-12-08T01:14:06;16.83;;;12.77;;
26540;SDS011;14206;50.202;10.948;2022-12-08T01:16:34;19.45;;;12.77;;
26540;SDS011;14206;50.202;10.948;2022-12-08T01:19:02;17.33;;;12.27;;
26540;SDS011;14206;50.202;10.948;2022-12-08T01:21:29;16.23;;;11.80;;
26540;SDS011;14206;50.202;10.948;2022-12-08T01:23:57;16.27;;;12.00;;
26540;SDS011;14206;50.202;10.948;2022-12-08T01:26:25;17.60;;;13.13;;
26540;SDS011;14206;50.202;10.948;2022-12-08T01:28:52;16.30;;;11.95;;
26540;SDS011;14206;50.202;10.948;2022-12-08T01:31:19;17.73;;;12.50;;
26540;SDS011;14206;50.202;10.948;2022-12-08T01:33:47;16.75;;;12.13;;
26540;SDS011;14206;50.202;10.948;2022-12-08T01:36:18;19.00;;;12.65;;
26540;SDS011;14206;50.202;10.948;2022-12-08T01:38:48;16.73;;;12.25;;
26540;SDS011;14206;50.202;10.948;2022-12-08T01:41:16;16.70;;;11.80;;
26540;SDS011;14206;50.202;10.948;2022-12-08T01:46:39;17.38;;;13.00;;
26540;SDS011;14206;50.202;10.948;2022-12-08T01:51:58;16.65;;;12.00;;
26540;SDS011;14206;50.202;10.948;2022-12-08T01:54:27;15.68;;;12.48;;
26540;SDS011;14206;50.202;10.948;2022-12-08T01:59:25;15.25;;;10.98;;
26540;SDS011;14206;50.202;10.948;2022-12-08T02:01:55;18.17;;;12.18;;
26540;SDS011;14206;50.202;10.948;2022-12-08T02:04:23;18.17;;;11.77;;
26540;SDS011;14206;50.202;10.948;2022-12-08T02:06:50;18.13;;;13.50;;
26540;SDS011;14206;50.202;10.948;2022-12-08T02:09:17;19.27;;;13.52;;
26540;SDS011;14206;50.202;10.948;2022-12-08T02:11:45;15.73;;;12.05;;
26540;SDS011;14206;50.202;10.948;2022-12-08T02:14:13;20.30;;;13.68;;
26540;SDS011;14206;50.202;10.948;2022-12-08T02:22:37;20.00;;;14.38;;
26540;SDS011;14206;50.202;10.948;2022-12-08T02:28:19;24.35;;;15.45;;
26540;SDS011;14206;50.202;10.948;2022-12-08T02:33:40;19.85;;;14.32;;
26540;SDS011;14206;50.202;10.948;2022-12-08T02:36:29;21.77;;;13.75;;
26540;SDS011;14206;50.202;10.948;2022-12-08T02:40:00;21.67;;;14.82;;
26540;SDS011;14206;50.202;10.948;2022-12-08T02:44:47;25.60;;;15.60;;
26540;SDS011;14206;50.202;10.948;2022-12-08T02:47:22;19.50;;;14.88;;
26540;SDS011;14206;50.202;10.948;2022-12-08T02:49:50;20.75;;;14.52;;
26540;SDS011;14206;50.202;10.948;2022-12-08T02:54:46;21.88;;;14.98;;
26540;SDS011;14206;50.202;10.948;2022-12-08T03:00:16;20.38;;;13.82;;
26540;SDS011;14206;50.202;10.948;2022-12-08T03:02:53;22.55;;;15.10;;
26540;SDS011;14206;50.202;10.948;2022-12-08T03:11:05;16.95;;;12.80;;
26540;SDS011;14206;50.202;10.948;2022-12-08T03:13:38;15.98;;;11.77;;
26540;SDS011;14206;50.202;10.948;2022-12-08T03:16:12;19.00;;;12.80;;
26540;SDS011;14206;50.202;10.948;2022-12-08T03:18:42;18.40;;;12.10;;
26540;SDS011;14206;50.202;10.948;2022-12-08T03:21:14;17.90;;;12.77;;
26540;SDS011;14206;50.202;10.948;2022-12-08T03:23:43;17.50;;;13.18;;
26540;SDS011;14206;50.202;10.948;2022-12-08T03:26:17;18.85;;;12.82;;
26540;SDS011;14206;50.202;10.948;2022-12-08T03:28:52;21.95;;;14.25;;
26540;SDS011;14206;50.202;10.948;2022-12-08T03:31:19;19.75;;;14.05;;
26540;SDS011;14206;50.202;10.948;2022-12-08T03:33:49;20.75;;;14.57;;
26540;SDS011;14206;50.202;10.948;2022-12-08T03:36:19;21.10;;;14.95;;
26540;SDS011;14206;50.202;10.948;2022-12-08T03:38:48;21.42;;;14.50;;
26540;SDS011;14206;50.202;10.948;2022-12-08T03:41:18;21.52;;;13.70;;
26540;SDS011;14206;50.202;10.948;2022-12-08T03:43:54;21.75;;;14.40;;
26540;SDS011;14206;50.202;10.948;2022-12-08T03:46:23;18.63;;;13.52;;
26540;SDS011;14206;50.202;10.948;2022-12-08T03:48:50;16.65;;;12.75;;
26540;SDS011;14206;50.202;10.948;2022-12-08T03:51:17;19.42;;;14.45;;
26540;SDS011;14206;50.202;10.948;2022-12-08T03:53:45;19.52;;;14.23;;
26540;SDS011;14206;50.202;10.948;2022-12-08T03:56:34;19.48;;;13.32;;
26540;SDS011;14206;50.202;10.948;2022-12-08T03:59:01;21.25;;;14.05;;
26540;SDS011;14206;50.202;10.948;2022-12-08T04:01:29;19.33;;;13.93;;
26540;SDS011;14206;50.202;10.948;2022-12-08T04:03:56;18.35;;;13.45;;
26540;SDS011;14206;50.202;10.948;2022-12-08T04:06:23;20.52;;;14.70;;
26540;SDS011;14206;50.202;10.948;2022-12-08T04:08:49;19.70;;;14.02;;
26540;SDS011;14206;50.202;10.948;2022-12-08T04:11:17;17.73;;;12.98;;
26540;SDS011;14206;50.202;10.948;2022-12-08T04:13:44;18.95;;;13.35;;
26540;SDS011;14206;50.202;10.948;2022-12-08T04:16:13;19.48;;;14.60;;
26540;SDS011;14206;50.202;10.948;2022-12-08T04:18:50;20.40;;;13.90;;
26540;SDS011;14206;50.202;10.948;2022-12-08T04:21:17;18.92;;;14.05;;
26540;SDS011;14206;50.202;10.948;2022-12-08T04:23:45;21.35;;;15.48;;
26540;SDS011;14206;50.202;10.948;2022-12-08T04:26:13;22.70;;;15.60;;
26540;SDS011;14206;50.202;10.948;2022-12-08T04:28:40;23.08;;;16.33;;
26540;SDS011;14206;50.202;10.948;2022-12-08T04:31:07;22.85;;;15.20;;
26540;SDS011;14206;50.202;10.948;2022-12-08T04:33:34;21.30;;;15.55;;
26540;SDS011;14206;50.202;10.948;2022-12-08T04:36:03;21.73;;;15.60;;
26540;SDS011;14206;50.202;10.948;2022-12-08T04:38:31;23.02;;;14.25;;
26540;SDS011;14206;50.202;10.948;2022-12-08T04:40:59;23.27;;;15.15;;
26540;SDS011;14206;50.202;10.948;2022-12-08T04:43:26;21.92;;;15.25;;
26540;SDS011;14206;50.202;10.948;2022-12-08T04:45:53;22.33;;;15.23;;
26540;SDS011;14206;50.202;10.948;2022-12-08T04:48:20;20.63;;;14.50;;
26540;SDS011;14206;50.202;10.948;2022-12-08T04:50:47;19.77;;;15.20;;
26540;SDS011;14206;50.202;10.948;2022-12-08T04:53:14;21.02;;;15.27;;
26540;SDS011;14206;50.202;10.948;2022-12-08T04:55:42;23.42;;;16.05;;
26540;SDS011;14206;50.202;10.948;2022-12-08T04:58:13;20.60;;;14.88;;
26540;SDS011;14206;50.202;10.948;2022-12-08T05:00:42;23.63;;;16.55;;
26540;SDS011;14206;50.202;10.948;2022-12-08T05:03:09;22.02;;;15.68;;
26540;SDS011;14206;50.202;10.948;2022-12-08T05:05:36;24.38;;;17.00;;
26540;SDS011;14206;50.202;10.948;2022-12-08T05:08:03;25.90;;;16.25;;
26540;SDS011;14206;50.202;10.948;2022-12-08T05:10:31;25.20;;;17.10;;
26540;SDS011;14206;50.202;10.948;2022-12-08T05:12:58;20.52;;;14.60;;
26540;SDS011;14206;50.202;10.948;2022-12-08T05:15:25;23.77;;;16.13;;
26540;SDS011;14206;50.202;10.948;2022-12-08T05:17:52;24.92;;;17.08;;
26540;SDS011;14206;50.202;10.948;2022-12-08T05:20:19;25.38;;;16.80;;
26540;SDS011;14206;50.202;10.948;2022-12-08T05:22:46;21.58;;;14.90;;
26540;SDS011;14206;50.202;10.948;2022-12-08T05:25:13;24.13;;;16.02;;
26540;SDS011;14206;50.202;10.948;2022-12-08T05:27:40;21.73;;;15.32;;
26540;SDS011;14206;50.202;10.948;2022-12-08T05:30:08;23.40;;;16.20;;
26540;SDS011;14206;50.202;10.948;2022-12-08T05:32:35;25.25;;;17.05;;
26540;SDS011;14206;50.202;10.948;2022-12-08T05:35:02;23.08;;;15.98;;
26540;SDS011;14206;50.202;10.948;2022-12-08T05:37:29;20.60;;;14.98;;
26540;SDS011;14206;50.202;10.948;2022-12-08T05:39:55;21.35;;;14.95;;
26540;SDS011;14206;50.202;10.948;2022-12-08T05:42:22;23.08;;;16.13;;
26540;SDS011;14206;50.202;10.948;2022-12-08T05:44:50;20.27;;;14.60;;
26540;SDS011;14206;50.202;10.948;2022-12-08T05:47:17;23.80;;;15.43;;
26540;SDS011;14206;50.202;10.948;2022-12-08T05:49:44;18.58;;;12.88;;
26540;SDS011;14206;50.202;10.948;2022-12-08T05:52:11;21.60;;;14.52;;
26540;SDS011;14206;50.202;10.948;2022-12-08T05:54:38;21.02;;;13.63;;
26540;SDS011;14206;50.202;10.948;2022-12-08T05:57:04;19.40;;;14.10;;
26540;SDS011;14206;50.202;10.948;2022-12-08T05:59:31;20.10;;;14.30;;
26540;SDS011;14206;50.202;10.948;2022-12-08T06:01:58;21.33;;;15.00;;
26540;SDS011;14206;50.202;10.948;2022-12-08T06:04:25;22.83;;;15.57;;
26540;SDS011;14206;50.202;10.948;2022-12-08T06:06:52;20.42;;;14.98;;
26540;SDS011;14206;50.202;10.948;2022-12-08T06:09:19;21.52;;;14.32;;
26540;SDS011;14206;50.202;10.948;2022-12-08T06:11:46;21.65;;;15.73;;
26540;SDS011;14206;50.202;10.948;2022-12-08T06:14:13;22.10;;;15.07;;
26540;SDS011;14206;50.202;10.948;2022-12-08T06:16:40;22.88;;;15.60;;
26540;SDS011;14206;50.202;10.948;2022-12-08T06:19:07;21.55;;;14.18;;
26540;SDS011;14206;50.202;10.948;2022-12-08T06:21:34;22.75;;;15.70;;
26540;SDS011;14206;50.202;10.948;2022-12-08T06:24:00;20.48;;;14.63;;
26540;SDS011;14206;50.202;10.948;2022-12-08T06:26:27;22.35;;;14.77;;
26540;SDS011;14206;50.202;10.948;2022-12-08T06:28:54;21.73;;;15.45;;
26540;SDS011;14206;50.202;10.948;2022-12-08T06:31:24;23.10;;;15.38;;
26540;SDS011;14206;50.202;10.948;2022-12-08T06:33:52;22.42;;;16.10;;
26540;SDS011;14206;50.202;10.948;2022-12-08T06:36:20;22.45;;;15.55;;
26540;SDS011;14206;50.202;10.948;2022-12-08T06:38:49;23.05;;;15.45;;
26540;SDS011;14206;50.202;10.948;2022-12-08T06:41:16;22.65;;;15.40;;
26540;SDS011;14206;50.202;10.948;2022-12-08T06:43:43;24.33;;;16.92;;
26540;SDS011;14206;50.202;10.948;2022-12-08T06:46:13;23.90;;;16.25;;
26540;SDS011;14206;50.202;10.948;2022-12-08T06:48:41;22.00;;;15.68;;
26540;SDS011;14206;50.202;10.948;2022-12-08T06:51:09;22.10;;;15.13;;
26540;SDS011;14206;50.202;10.948;2022-12-08T06:53:38;23.33;;;15.50;;
26540;SDS011;14206;50.202;10.948;2022-12-08T06:56:06;21.58;;;14.95;;
26540;SDS011;14206;50.202;10.948;2022-12-08T06:58:33;22.60;;;15.73;;
26540;SDS011;14206;50.202;10.948;2022-12-08T07:01:10;21.75;;;15.80;;
26540;SDS011;14206;50.202;10.948;2022-12-08T07:03:38;22.85;;;16.15;;
26540;SDS011;14206;50.202;10.948;2022-12-08T07:06:06;22.13;;;15.38;;
26540;SDS011;14206;50.202;10.948;2022-12-08T07:08:33;22.98;;;16.13;;
26540;SDS011;14206;50.202;10.948;2022-12-08T07:11:08;23.45;;;16.70;;
26540;SDS011;14206;50.202;10.948;2022-12-08T07:13:35;21.73;;;14.63;;
26540;SDS011;14206;50.202;10.948;2022-12-08T07:16:06;24.33;;;16.45;;
26540;SDS011;14206;50.202;10.948;2022-12-08T07:18:34;23.35;;;16.08;;
26540;SDS011;14206;50.202;10.948;2022-12-08T07:21:05;23.63;;;16.20;;
26540;SDS011;14206;50.202;10.948;2022-12-08T07:23:33;23.73;;;16.25;;
26540;SDS011;14206;50.202;10.948;2022-12-08T07:26:01;24.38;;;15.23;;
26540;SDS011;14206;50.202;10.948;2022-12-08T07:28:30;22.60;;;14.68;;
26540;SDS011;14206;50.202;10.948;2022-12-08T07:30:58;20.48;;;14.25;;
26540;SDS011;14206;50.202;10.948;2022-12-08T07:33:25;23.10;;;15.48;;
26540;SDS011;14206;50.202;10.948;2022-12-08T07:35:55;22.25;;;15.63;;
26540;SDS011;14206;50.202;10.948;2022-12-08T07:38:23;21.20;;;14.65;;
26540;SDS011;14206;50.202;10.948;2022-12-08T07:40:51;21.63;;;15.05;;
26540;SDS011;14206;50.202;10.948;2022-12-08T07:43:18;21.65;;;15.48;;
26540;SDS011;14206;50.202;10.948;2022-12-08T07:45:45;22.67;;;15.05;;
26540;SDS011;14206;50.202;10.948;2022-12-08T07:48:12;22.50;;;14.65;;
26540;SDS011;14206;50.202;10.948;2022-12-08T07:50:39;21.67;;;15.32;;
26540;SDS011;14206;50.202;10.948;2022-12-08T07:53:06;21.23;;;14.82;;
26540;SDS011;14206;50.202;10.948;2022-12-08T07:55:34;22.50;;;14.65;;
26540;SDS011;14206;50.202;10.948;2022-12-08T07:58:05;21.23;;;13.88;;
26540;SDS011;14206;50.202;10.948;2022-12-08T08:00:32;19.95;;;14.13;;
26540;SDS011;14206;50.202;10.948;2022-12-08T08:02:59;19.92;;;14.57;;
26540;SDS011;14206;50.202;10.948;2022-12-08T08:05:27;22.92;;;15.50;;
26540;SDS011;14206;50.202;10.948;2022-12-08T08:07:53;19.30;;;13.27;;
26540;SDS011;14206;50.202;10.948;2022-12-08T08:10:20;19.35;;;13.50;;
26540;SDS011;14206;50.202;10.948;2022-12-08T08:12:47;22.45;;;15.25;;
26540;SDS011;14206;50.202;10.948;2022-12-08T08:15:14;21.23;;;14.05;;
26540;SDS011;14206;50.202;10.948;2022-12-08T08:17:42;20.80;;;14.30;;
26540;SDS011;14206;50.202;10.948;2022-12-08T08:20:09;18.70;;;13.35;;
26540;SDS011;14206;50.202;10.948;2022-12-08T08:22:36;19.55;;;13.73;;
26540;SDS011;14206;50.202;10.948;2022-12-08T08:25:03;19.52;;;14.02;;
26540;SDS011;14206;50.202;10.948;2022-12-08T08:27:30;18.35;;;13.57;;
26540;SDS011;14206;50.202;10.948;2022-12-08T08:29:57;21.52;;;13.93;;
26540;SDS011;14206;50.202;10.948;2022-12-08T08:32:24;20.38;;;14.15;;
26540;SDS011;14206;50.202;10.948;2022-12-08T08:34:51;19.83;;;14.07;;
26540;SDS011;14206;50.202;10.948;2022-12-08T08:37:17;22.35;;;14.80;;
26540;SDS011;14206;50.202;10.948;2022-12-08T08:39:44;22.30;;;15.43;;
26540;SDS011;14206;50.202;10.948;2022-12-08T08:42:11;19.27;;;14.18;;
26540;SDS011;14206;50.202;10.948;2022-12-08T08:44:38;19.95;;;13.90;;
26540;SDS011;14206;50.202;10.948;2022-12-08T08:47:05;18.85;;;14.23;;
26540;SDS011;14206;50.202;10.948;2022-12-08T08:49:32;20.13;;;14.00;;
26540;SDS011;14206;50.202;10.948;2022-12-08T08:51:59;19.75;;;13.30;;
26540;SDS011;14206;50.202;10.948;2022-12-08T08:54:29;19.38;;;13.32;;
26540;SDS011;14206;50.202;10.948;2022-12-08T08:56:57;20.17;;;14.02;;
26540;SDS011;14206;50.202;10.948;2022-12-08T08:59:25;18.73;;;13.25;;
26540;SDS011;14206;50.202;10.948;2022-12-08T09:01:53;18.27;;;12.95;;
26540;SDS011;14206;50.202;10.948;2022-12-08T09:04:20;18.90;;;13.00;;
26540;SDS011;14206;50.202;10.948;2022-12-08T09:06:48;18.75;;;13.68;;
26540;SDS011;14206;50.202;10.948;2022-12-08T09:09:15;17.55;;;13.07;;
26540;SDS011;14206;50.202;10.948;2022-12-08T09:11:42;17.85;;;13.27;;
26540;SDS011;14206;50.202;10.948;2022-12-08T09:14:13;17.60;;;12.20;;
26540;SDS011;14206;50.202;10.948;2022-12-08T09:16:40;16.92;;;12.20;;
26540;SDS011;14206;50.202;10.948;2022-12-08T09:19:08;16.85;;;12.68;;
26540;SDS011;14206;50.202;10.948;2022-12-08T09:21:35;15.68;;;12.25;;
26540;SDS011;14206;50.202;10.948;2022-12-08T09:24:02;17.35;;;12.10;;
26540;SDS011;14206;50.202;10.948;2022-12-08T09:26:29;17.70;;;13.00;;
26540;SDS011;14206;50.202;10.948;2022-12-08T09:28:56;15.43;;;11.27;;
26540;SDS011;14206;50.202;10.948;2022-12-08T09:31:23;16.90;;;12.40;;
26540;SDS011;14206;50.202;10.948;2022-12-08T09:33:50;16.92;;;12.15;;
26540;SDS011;14206;50.202;10.948;2022-12-08T09:36:17;14.60;;;11.25;;
26540;SDS011;14206;50.202;10.948;2022-12-08T09:38:45;16.05;;;11.27;;
26540;SDS011;14206;50.202;10.948;2022-12-08T09:41:13;15.98;;;11.77;;
26540;SDS011;14206;50.202;10.948;2022-12-08T09:46:37;14.77;;;10.68;;
26540;SDS011;14206;50.202;10.948;2022-12-08T09:49:04;16.20;;;10.77;;
26540;SDS011;14206;50.202;10.948;2022-12-08T09:51:40;12.43;;;10.02;;
26540;SDS011;14206;50.202;10.948;2022-12-08T09:56:40;13.13;;;10.00;;
26540;SDS011;14206;50.202;10.948;2022-12-08T10:01:35;11.63;;;9.35;;
26540;SDS011;14206;50.202;10.948;2022-12-08T10:04:29;13.10;;;9.27;;
26540;SDS011;14206;50.202;10.948;2022-12-08T10:07:02;12.77;;;9.13;;
26540;SDS011;14206;50.202;10.948;2022-12-08T10:18:26;12.60;;;9.15;;
26540;SDS011;14206;50.202;10.948;2022-12-08T10:21:04;12.02;;;9.30;;
26540;SDS011;14206;50.202;10.948;2022-12-08T10:23:45;14.30;;;10.05;;
26540;SDS011;14206;50.202;10.948;2022-12-08T10:26:16;11.98;;;9.27;;
26540;SDS011;14206;50.202;10.948;2022-12-08T10:28:45;11.60;;;9.30;;
26540;SDS011;14206;50.202;10.948;2022-12-08T10:33:43;13.10;;;9.02;;
26540;SDS011;14206;50.202;10.948;2022-12-08T10:36:12;13.98;;;10.52;;
26540;SDS011;14206;50.202;10.948;2022-12-08T10:38:39;12.65;;;9.30;;
26540;SDS011;14206;50.202;10.948;2022-12-08T10:43:43;11.88;;;7.95;;
26540;SDS011;14206;50.202;10.948;2022-12-08T10:46:25;9.73;;;7.25;;
26540;SDS011;14206;50.202;10.948;2022-12-08T10:48:54;10.48;;;6.85;;
26540;SDS011;14206;50.202;10.948;2022-12-08T10:51:41;9.02;;;7.00;;
26540;SDS011;14206;50.202;10.948;2022-12-08T10:54:28;10.45;;;6.68;;
26540;SDS011;14206;50.202;10.948;2022-12-08T10:56:58;9.23;;;6.97;;
26540;SDS011;14206;50.202;10.948;2022-12-08T10:59:25;9.63;;;7.05;;
26540;SDS011;14206;50.202;10.948;2022-12-08T11:01:53;9.40;;;7.07;;
26540;SDS011;14206;50.202;10.948;2022-12-08T11:04:22;10.40;;;6.82;;
26540;SDS011;14206;50.202;10.948;2022-12-08T11:06:59;9.15;;;6.53;;
26540;SDS011;14206;50.202;10.948;2022-12-08T11:09:41;8.38;;;6.50;;
26540;SDS011;14206;50.202;10.948;2022-12-08T11:12:16;9.02;;;6.80;;
26540;SDS011;14206;50.202;10.948;2022-12-08T11:17:14;9.05;;;7.50;;
26540;SDS011;14206;50.202;10.948;2022-12-08T11:19:56;9.25;;;7.43;;
26540;SDS011;14206;50.202;10.948;2022-12-08T11:24:55;9.60;;;7.25;;
26540;SDS011;14206;50.202;10.948;2022-12-08T11:27:43;9.18;;;7.03;;
26540;SDS011;14206;50.202;10.948;2022-12-08T11:32:41;9.50;;;7.32;;
26540;SDS011;14206;50.202;10.948;2022-12-08T11:35:26;9.57;;;6.60;;
26540;SDS011;14206;50.202;10.948;2022-12-08T11:38:03;8.48;;;6.68;;
26540;SDS011;14206;50.202;10.948;2022-12-08T11:40:49;9.05;;;6.53;;
26540;SDS011;14206;50.202;10.948;2022-12-08T11:46:42;8.85;;;6.32;;
26540;SDS011;14206;50.202;10.948;2022-12-08T11:49:18;8.02;;;5.85;;
26540;SDS011;14206;50.202;10.948;2022-12-08T11:51:47;7.75;;;5.78;;
26540;SDS011;14206;50.202;10.948;2022-12-08T11:54:35;7.20;;;5.50;;
26540;SDS011;14206;50.202;10.948;2022-12-08T11:57:11;7.38;;;5.95;;
26540;SDS011;14206;50.202;10.948;2022-12-08T11:59:42;7.30;;;6.28;;
26540;SDS011;14206;50.202;10.948;2022-12-08T12:02:22;8.02;;;6.00;;
26540;SDS011;14206;50.202;10.948;2022-12-08T12:10:05;6.30;;;5.18;;
26540;SDS011;14206;50.202;10.948;2022-12-08T12:12:42;6.13;;;5.32;;
26540;SDS011;14206;50.202;10.948;2022-12-08T12:21:21;8.18;;;5.90;;
26540;SDS011;14206;50.202;10.948;2022-12-08T12:26:28;9.07;;;6.68;;
26540;SDS011;14206;50.202;10.948;2022-12-08T12:31:42;8.48;;;5.78;;
26540;SDS011;14206;50.202;10.948;2022-12-08T12:34:15;8.88;;;6.57;;
26540;SDS011;14206;50.202;10.948;2022-12-08T12:39:18;8.07;;;5.40;;
26540;SDS011;14206;50.202;10.948;2022-12-08T12:41:49;7.30;;;5.88;;
26540;SDS011;14206;50.202;10.948;2022-12-08T12:46:56;8.27;;;6.55;;
26540;SDS011;14206;50.202;10.948;2022-12-08T12:54:42;9.55;;;7.30;;
26540;SDS011;14206;50.202;10.948;2022-12-08T13:05:08;8.73;;;6.75;;
26540;SDS011;14206;50.202;10.948;2022-12-08T13:07:47;7.88;;;5.90;;
26540;SDS011;14206;50.202;10.948;2022-12-08T13:10:47;8.38;;;6.28;;
26540;SDS011;14206;50.202;10.948;2022-12-08T13:13:21;8.48;;;6.43;;
26540;SDS011;14206;50.202;10.948;2022-12-08T13:15:49;9.02;;;6.82;;
26540;SDS011;14206;50.202;10.948;2022-12-08T13:18:28;9.52;;;6.40;;
26540;SDS011;14206;50.202;10.948;2022-12-08T13:39:59;8.18;;;6.38;;
26540;SDS011;14206;50.202;10.948;2022-12-08T13:45:45;8.10;;;6.30;;
26540;SDS011;14206;50.202;10.948;2022-12-08T13:48:46;10.25;;;6.60;;
26540;SDS011;14206;50.202;10.948;2022-12-08T13:51:39;7.10;;;5.95;;
26540;SDS011;14206;50.202;10.948;2022-12-08T13:54:33;6.82;;;5.60;;
26540;SDS011;14206;50.202;10.948;2022-12-08T13:57:26;6.55;;;5.53;;
26540;SDS011;14206;50.202;10.948;2022-12-08T13:59:58;8.15;;;6.45;;
26540;SDS011;14206;50.202;10.948;2022-12-08T14:02:46;7.55;;;6.30;;
26540;SDS011;14206;50.202;10.948;2022-12-08T14:05:15;7.93;;;6.05;;
26540;SDS011;14206;50.202;10.948;2022-12-08T14:07:50;8.68;;;6.03;;
26540;SDS011;14206;50.202;10.948;2022-12-08T14:12:53;6.82;;;5.80;;
26540;SDS011;14206;50.202;10.948;2022-12-08T14:15:24;7.32;;;5.75;;
26540;SDS011;14206;50.202;10.948;2022-12-08T14:17:52;7.97;;;5.85;;
26540;SDS011;14206;50.202;10.948;2022-12-08T14:20:30;8.25;;;5.90;;
26540;SDS011;14206;50.202;10.948;2022-12-08T14:23:17;8.00;;;5.45;;
26540;SDS011;14206;50.202;10.948;2022-12-08T14:25:45;8.27;;;6.40;;
26540;SDS011;14206;50.202;10.948;2022-12-08T14:28:13;7.50;;;5.63;;
26540;SDS011;14206;50.202;10.948;2022-12-08T14:30:40;7.90;;;5.88;;
26540;SDS011;14206;50.202;10.948;2022-12-08T14:33:10;7.60;;;6.20;;
26540;SDS011;14206;50.202;10.948;2022-12-08T14:35:40;7.35;;;5.40;;
26540;SDS011;14206;50.202;10.948;2022-12-08T14:38:13;6.72;;;5.50;;
26540;SDS011;14206;50.202;10.948;2022-12-08T14:40:46;6.88;;;5.53;;
26540;SDS011;14206;50.202;10.948;2022-12-08T14:43:25;8.18;;;5.68;;
26540;SDS011;14206;50.202;10.948;2022-12-08T14:45:58;6.85;;;5.90;;
26540;SDS011;14206;50.202;10.948;2022-12-08T15:01:45;8.23;;;6.35;;
26540;SDS011;14206;50.202;10.948;2022-12-08T15:07:03;8.82;;;5.82;;
26540;SDS011;14206;50.202;10.948;2022-12-08T15:09:45;8.07;;;6.47;;
26540;SDS011;14206;50.202;10.948;2022-12-08T15:12:20;8.93;;;6.88;;
26540;SDS011;14206;50.202;10.948;2022-12-08T15:17:28;7.13;;;5.97;;
26540;SDS011;14206;50.202;10.948;2022-12-08T15:20:00;7.15;;;5.90;;
26540;SDS011;14206;50.202;10.948;2022-12-08T15:22:28;9.82;;;6.63;;
26540;SDS011;14206;50.202;10.948;2022-12-08T15:24:56;8.20;;;6.18;;
26540;SDS011;14206;50.202;10.948;2022-12-08T15:27:23;7.90;;;5.88;;
26540;SDS011;14206;50.202;10.948;2022-12-08T15:29:51;9.27;;;6.50;;
26540;SDS011;14206;50.202;10.948;2022-12-08T15:32:19;7.57;;;5.90;;
26540;SDS011;14206;50.202;10.948;2022-12-08T15:34:48;8.38;;;6.55;;
26540;SDS011;14206;50.202;10.948;2022-12-08T15:37:19;8.82;;;7.05;;
26540;SDS011;14206;50.202;10.948;2022-12-08T15:39:51;8.18;;;6.30;;
26540;SDS011;14206;50.202;10.948;2022-12-08T15:42:18;8.40;;;6.72;;
26540;SDS011;14206;50.202;10.948;2022-12-08T15:44:45;10.02;;;7.13;;
26540;SDS011;14206;50.202;10.948;2022-12-08T15:47:19;7.55;;;5.78;;
26540;SDS011;14206;50.202;10.948;2022-12-08T15:49:48;7.60;;;6.05;;
26540;SDS011;14206;50.202;10.948;2022-12-08T15:52:18;7.95;;;6.50;;
26540;SDS011;14206;50.202;10.948;2022-12-08T15:54:46;8.60;;;6.82;;
26540;SDS011;14206;50.202;10.948;2022-12-08T15:57:16;9.73;;;7.30;;
26540;SDS011;14206;50.202;10.948;2022-12-08T16:00:33;10.57;;;7.28;;
26540;SDS011;14206;50.202;10.948;2022-12-08T16:03:27;8.68;;;6.90;;
26540;SDS011;14206;50.202;10.948;2022-12-08T16:06:19;10.18;;;7.50;;
26540;SDS011;14206;50.202;10.948;2022-12-08T16:09:49;9.00;;;7.10;;
26540;SDS011;14206;50.202;10.948;2022-12-08T16:12:14;10.48;;;8.05;;
26540;SDS011;14206;50.202;10.948;2022-12-08T16:15:21;11.00;;;7.88;;
26540;SDS011;14206;50.202;10.948;2022-12-08T16:18:15;9.85;;;8.15;;
26540;SDS011;14206;50.202;10.948;2022-12-08T16:20:49;10.27;;;7.57;;
26540;SDS011;14206;50.202;10.948;2022-12-08T16:23:35;11.45;;;7.68;;
26540;SDS011;14206;50.202;10.948;2022-12-08T16:26:14;9.45;;;7.68;;
26540;SDS011;14206;50.202;10.948;2022-12-08T16:29:04;9.13;;;6.93;;
26540;SDS011;14206;50.202;10.948;2022-12-08T16:31:31;9.55;;;7.75;;
26540;SDS011;14206;50.202;10.948;2022-12-08T16:33:58;10.05;;;7.40;;
26540;SDS011;14206;50.202;10.948;2022-12-08T16:36:25;11.70;;;8.32;;
26540;SDS011;14206;50.202;10.948;2022-12-08T16:38:52;10.50;;;7.97;;
26540;SDS011;14206;50.202;10.948;2022-12-08T16:41:19;11.02;;;7.93;;
26540;SDS011;14206;50.202;10.948;2022-12-08T16:44:04;12.90;;;8.63;;
26540;SDS011;14206;50.202;10.948;2022-12-08T16:46:31;9.45;;;6.90;;
26540;SDS011;14206;50.202;10.948;2022-12-08T16:48:59;10.07;;;7.50;;
26540;SDS011;14206;50.202;10.948;2022-12-08T16:51:27;8.60;;;6.55;;
26540;SDS011;14206;50.202;10.948;2022-12-08T16:53:54;9.82;;;7.15;;
26540;SDS011;14206;50.202;10.948;2022-12-08T16:56:22;8.48;;;6.40;;
26540;SDS011;14206;50.202;10.948;2022-12-08T16:58:57;9.85;;;7.13;;
26540;SDS011;14206;50.202;10.948;2022-12-08T17:01:24;9.32;;;7.22;;
26540;SDS011;14206;50.202;10.948;2022-12-08T17:03:51;8.60;;;5.97;;
26540;SDS011;14206;50.202;10.948;2022-12-08T17:06:38;10.73;;;7.75;;